• Join FlightAware (Why Join?)
  • Login
  • US Flag 
10:58PM EDT


 

Airport Tracker/Info


-or-


 

Live Flight TrackerFlight Track Log ✈ AAY874 ✈ 20-Jun-2014 ✈ KPIE - KBGR

Flight Track Log - Related Links

Times and Time Zones

All times are in EDT time to prevent confusion due to time zone crossing. See the AAY874 flight status page for this flight to view local times or setup timezone preferences in your user account.

Time Position Orientation Groundspeed Altitude Reporting Facility
EDT Latitude Longitude Course Direction KTS MPH feet Rate Location/Type
02:31PM 27.9333 -82.7000 North 174 200 700  Level Tampa TRACON
02:32PM 27.9667 -82.6833 24° Northeast 185 213 1,900 1,560 Climbing Tampa TRACON
02:33PM 28.0333 -82.6667 12° North 268 308 3,600 2,220 Climbing Tampa TRACON
02:35PM 28.7103 -82.6366 North  Level FlightAware Approximate
02:35PM 28.1769 -82.7067 346° North 265 305 9,100  Level Jacksonville Center
02:36PM 28.8263 -82.6333 North  Level FlightAware Approximate
02:36PM 28.2583 -82.7158 354° North 281 323 10,800  Level Jacksonville Center
02:37PM 28.3522 -82.7275 354° North 312 359 12,800 2,040 Climbing Jacksonville Center
02:38PM 28.4525 -82.7367 355° North 340 391 14,900 1,920 Climbing Jacksonville Center
02:39PM 28.5547 -82.7483 354° North 358 412 16,700 1,620 Climbing Jacksonville Center
02:40PM 28.6653 -82.7578 356° North 371 427 18,200 1,680 Climbing Jacksonville Center
02:41PM 28.7822 -82.7647 357° North 382 440 20,100 1,800 Climbing Jacksonville Center
02:42PM 28.8992 -82.7764 355° North 397 457 21,800 1,560 Climbing Jacksonville Center
02:43PM 29.0117 -82.7714 North 403 464 23,300 1,260 Climbing Jacksonville Center
02:49PM 29.7262 -82.6669 North 448 516 30,700 1,200 Climbing FlightAware ADS-B (KMCO)
02:49PM 29.8169 -82.6538 North 450 518 31,400 960 Climbing FlightAware ADS-B (KMCO)
02:50PM 29.8965 -82.6423 North 447 514 32,300 960 Climbing FlightAware ADS-B (KMCO)
02:51PM 30.0238 -82.6239 North 450 518 33,000 960 Climbing FlightAware ADS-B (KMCO)
02:52PM 30.1878 -82.5997 North 444 511 34,400 1,020 Climbing FlightAware ADS-B (KMCO)
02:53PM 30.2703 -82.5875 North 441 507 35,100 780 Climbing FlightAware ADS-B (KMCO)
02:54PM 30.3638 -82.5738 North 440 506 35,700 600 Climbing FlightAware ADS-B (KMCO)
02:55PM 30.5087 -82.5313 22° Northeast 439 505 36,300 480 Climbing FlightAware ADS-B (KMCO)
02:56PM 30.5769 -82.4969 22° Northeast 438 504 36,700 360 Climbing Jacksonville Center
02:57PM 30.6789 -82.4144 35° Northeast 425 489 37,000  Climbing Jacksonville Center
03:03PM 31.2792 -81.9220 35° Northeast 441 507 37,000  Level FlightAware ADS-B
03:04PM 31.4225 -81.8037 35° Northeast 442 509 37,100  Climbing FlightAware ADS-B
03:06PM 31.5877 -81.6669 35° Northeast 445 512 37,000 -60 Descending FlightAware ADS-B
03:09PM 31.9426 -81.3709 36° Northeast 449 517 37,000  Level FlightAware ADS-B
03:11PM 32.1105 -81.2280 40° Northeast 449 517 37,000  Level FlightAware ADS-B
03:12PM 32.2027 -81.1138 53° Northeast 450 518 37,000  Level FlightAware ADS-B
03:13PM 32.2635 -81.0202 53° Northeast 450 518 37,000  Level FlightAware ADS-B
03:13PM 32.3026 -80.9601 53° Northeast 449 517 37,000  Level FlightAware ADS-B
03:14PM 32.3535 -80.8818 53° Northeast 450 518 37,000  Level FlightAware ADS-B
03:15PM 32.4120 -80.7916 53° Northeast 450 518 37,000  Level FlightAware ADS-B
03:15PM 32.4640 -80.7111 53° Northeast 450 518 37,000  Level FlightAware ADS-B
03:16PM 32.5186 -80.6266 53° Northeast 449 517 37,000  Level FlightAware ADS-B
03:17PM 32.5643 -80.5555 53° Northeast 449 517 37,000  Level FlightAware ADS-B
03:18PM 32.6204 -80.4681 53° Northeast 446 513 37,000  Level FlightAware ADS-B
03:23PM 33.0472 -79.9272 32° Northeast 449 517 37,000  Level FlightAware ADS-B
03:24PM 33.1611 -79.8431 32° Northeast 442 509 37,000  Level Jacksonville Center
03:25PM 33.2675 -79.7650 32° Northeast 437 503 37,000  Level Jacksonville Center
03:26PM 33.3742 -79.6889 31° Northeast 437 503 37,000  Level Jacksonville Center
03:27PM 33.4786 -79.6131 31° Northeast 442 509 37,000  Level Jacksonville Center
03:33PM 34.1242 -79.1317 32° Northeast 447 514 37,000  Level FlightAware ADS-B (KINT)
03:34PM 34.1957 -79.0778 32° Northeast 445 512 37,000  Level FlightAware ADS-B (KINT)
03:34PM 34.2443 -79.0413 32° Northeast 443 510 37,000  Level FlightAware ADS-B (KINT)
03:35PM 34.3725 -78.9447 32° Northeast 442 509 37,000  Level FlightAware ADS-B (KINT)
03:36PM 34.4294 -78.9017 32° Northeast 441 507 37,000  Level FlightAware ADS-B (KINT)
03:37PM 34.5075 -78.8428 32° Northeast 442 509 37,000  Level FlightAware ADS-B (KINT)
03:37PM 34.5675 -78.7973 32° Northeast 442 509 37,000  Level FlightAware ADS-B (KINT)
03:38PM 34.6743 -78.7158 32° Northeast 441 507 37,000  Level FlightAware ADS-B (KINT)
03:39PM 34.7870 -78.6298 32° Northeast 445 512 37,000  Level FlightAware ADS-B (KINT)
03:42PM 35.1030 -78.3871 32° Northeast 447 514 37,000  Level FlightAware ADS-B (KINT)
03:45PM 35.4506 -78.1176 32° Northeast 459 528 37,000  Level FlightAware ADS-B
03:48PM 35.4679 -78.1041 33° Northeast 452 520 37,000  Level FlightAware ADS-B
03:49PM 35.7503 -77.8853 33° Northeast 450 518 37,000  Level Washington Center
03:50PM 35.8583 -77.8011 32° Northeast 450 518 37,000  Level Washington Center
03:55PM 36.4144 -77.2959 37° Northeast 446 513 37,000  Level FlightAware ADS-B (KWWD)
03:55PM 36.4666 -77.2467 37° Northeast 447 514 37,000  Level FlightAware ADS-B (KWWD)
03:56PM 36.5154 -77.2009 37° Northeast 445 512 37,000 60 Level FlightAware ADS-B (KWWD)
03:56PM 36.5803 -77.1396 37° Northeast 443 510 37,100  Climbing FlightAware ADS-B
03:57PM 36.6231 -77.0991 37° Northeast 440 506 37,000 -120 Descending FlightAware ADS-B
03:58PM 36.6809 -77.0447 37° Northeast 440 506 37,000  Level FlightAware ADS-B
03:58PM 36.7531 -76.9769 36° Northeast 439 505 37,000  Level FlightAware ADS-B
03:59PM 36.7804 -76.9526 35° Northeast 438 504 37,000  Level FlightAware ADS-B
03:59PM 36.8610 -76.8810 36° Northeast 439 505 37,000  Level FlightAware ADS-B (KWWD)
04:00PM 36.9239 -76.8243 36° Northeast 436 502 37,000  Level FlightAware ADS-B
04:01PM 36.9993 -76.7562 36° Northeast 434 499 37,000  Level FlightAware ADS-B
04:02PM 37.0668 -76.6950 35° Northeast 433 498 37,000  Level FlightAware ADS-B (KDCA)
04:02PM 37.1260 -76.6415 35° Northeast 433 498 37,000  Level FlightAware ADS-B (KDCA)
04:03PM 37.1968 -76.5772 35° Northeast 436 502 37,000  Level FlightAware ADS-B (KDCA)
04:03PM 37.2613 -76.5184 36° Northeast 437 503 37,000  Level FlightAware ADS-B
04:04PM 37.3293 -76.4564 36° Northeast 439 505 37,000  Level FlightAware ADS-B (KDCA)
04:05PM 37.3904 -76.4005 36° Northeast 439 505 37,000  Level FlightAware ADS-B
04:06PM 37.4582 -76.3383 36° Northeast 440 506 37,000 60 Level FlightAware ADS-B (KDCA)
04:06PM 37.5173 -76.2839 36° Northeast 440 506 37,100  Climbing FlightAware ADS-B (KDCA)
04:07PM 37.5733 -76.2323 36° Northeast 441 507 37,000  Descending FlightAware ADS-B (KWWD)
04:07PM 37.6339 -76.1763 36° Northeast 441 507 37,100  Climbing FlightAware ADS-B (KWWD)
04:08PM 37.6894 -76.1250 36° Northeast 441 507 37,000 -120 Descending FlightAware ADS-B (KDCA)
04:09PM 37.7519 -76.0671 36° Northeast 442 509 37,000  Level FlightAware ADS-B (KDCA)
04:10PM 37.8519 -75.9743 36° Northeast 441 507 37,000  Level FlightAware ADS-B (KSBY)
04:10PM 37.9213 -75.9096 36° Northeast 442 509 37,000  Level FlightAware ADS-B (KSBY)
04:11PM 37.9862 -75.8488 37° Northeast 440 506 37,000  Level FlightAware ADS-B (KSBY)
04:11PM 38.0282 -75.8095 37° Northeast 438 504 37,000  Level FlightAware ADS-B (KSBY)
04:12PM 38.0526 -75.7866 36° Northeast 438 504 37,000  Level FlightAware ADS-B (KDCA)
04:12PM 38.1170 -75.7260 37° Northeast 436 502 37,000  Level FlightAware ADS-B (KSBY)
04:13PM 38.1805 -75.6664 37° Northeast 435 501 37,000  Level FlightAware ADS-B (KSBY)
04:14PM 38.2575 -75.5938 37° Northeast 436 502 37,000  Level FlightAware ADS-B (KSBY)
04:14PM 38.2995 -75.5554 32° Northeast 432 497 37,000  Level FlightAware ADS-B (KSBY)
04:15PM 38.3472 -75.5196 26° Northeast 428 493 37,000  Level FlightAware ADS-B (KSBY)
04:15PM 38.4287 -75.4762 18° North 422 486 37,000  Level FlightAware ADS-B (KSBY)
04:16PM 38.4922 -75.4501 18° North 423 487 37,000 60 Level FlightAware ADS-B (KSBY)
04:17PM 38.5822 -75.4125 18° North 422 486 37,100  Climbing FlightAware ADS-B (KSBY)
04:17PM 38.6474 -75.3854 18° North 420 483 37,000 -120 Descending FlightAware ADS-B (KPHL)
04:18PM 38.7333 -75.3494 20° North 420 483 37,000  Level FlightAware ADS-B (KSBY)
04:18PM 38.7482 -75.3411 31° Northeast 430 495 37,000 60 Level FlightAware ADS-B (KPHL)
04:19PM 38.8146 -75.2822 36° Northeast 435 501 37,100  Climbing FlightAware ADS-B (KSBY)
04:20PM 38.8886 -75.2135 36° Northeast 429 494 37,000 -120 Descending FlightAware ADS-B (KSBY)
04:20PM 38.9450 -75.1612 36° Northeast 429 494 37,000  Level FlightAware ADS-B (KSBY)
04:21PM 39.0023 -75.1078 36° Northeast 429 494 37,000  Level FlightAware ADS-B (KPHL)
04:21PM 39.0574 -75.0564 36° Northeast 429 494 37,000  Level FlightAware ADS-B (KPHL)
04:22PM 39.1226 -74.9954 36° Northeast 431 496 37,000  Level FlightAware ADS-B (KSBY)
04:23PM 39.2511 -74.8747 36° Northeast 431 496 37,000  Level FlightAware ADS-B (KPHL)
04:24PM 39.2708 -74.8562 36° Northeast 432 497 37,000  Level FlightAware ADS-B (KPHL)
04:25PM 39.3740 -74.7589 36° Northeast 432 497 37,000 60 Level FlightAware ADS-B (KPHL)
04:25PM 39.4471 -74.6898 36° Northeast 431 496 37,100  Climbing FlightAware ADS-B (KPHL)
04:26PM 39.5074 -74.6326 36° Northeast 431 496 37,000 -60 Descending FlightAware ADS-B (KPHL)
04:27PM 39.6071 -74.5379 36° Northeast 430 495 37,000  Level FlightAware ADS-B (KPHL)
04:28PM 39.7121 -74.4376 36° Northeast 430 495 37,000  Level FlightAware ADS-B (KPHL)
04:29PM 39.7838 -74.3690 37° Northeast 429 494 37,000  Level FlightAware ADS-B (KPHL)
04:30PM 39.8539 -74.3016 37° Northeast 427 491 37,000  Level FlightAware ADS-B (KPHL)
04:30PM 39.9300 -74.2284 37° Northeast 420 483 37,000  Level FlightAware ADS-B (KWWD)
04:31PM 39.9773 -74.1827 37° Northeast 427 491 37,000  Level FlightAware ADS-B (KSNC)
04:31PM 40.0245 -74.1371 37° Northeast 426 490 37,000  Level FlightAware ADS-B (KPHL)
04:32PM 40.0958 -74.0680 37° Northeast 427 491 37,000  Level FlightAware ADS-B (KSNC)
04:33PM 40.1523 -74.0132 37° Northeast 428 493 37,000  Level FlightAware ADS-B (KSNC)
04:34PM 40.2649 -73.9033 37° Northeast 431 496 37,000  Level FlightAware ADS-B (KSNC)
04:34PM 40.3147 -73.8546 37° Northeast 432 497 37,000 60 Level FlightAware ADS-B (KSNC)
04:35PM 40.3791 -73.7916 37° Northeast 432 497 37,100 60 Climbing FlightAware ADS-B (KPHL)
04:36PM 40.4267 -73.7449 37° Northeast 431 496 37,100  Level FlightAware ADS-B (KPHL)
04:36PM 40.4891 -73.6834 37° Northeast 427 491 37,100 -120 Level FlightAware ADS-B (KSNC)
04:37PM 40.5499 -73.6235 37° Northeast 423 487 37,000 -120 Descending FlightAware ADS-B (KPHL)
04:37PM 40.5970 -73.5769 37° Northeast 422 486 37,000  Level FlightAware ADS-B (KSNC)
04:38PM 40.6541 -73.5204 37° Northeast 423 487 37,000  Level FlightAware ADS-B (KSNC)
04:39PM 40.7080 -73.4663 38° Northeast 426 490 37,000  Level FlightAware ADS-B (KSNC)
04:39PM 40.7546 -73.4177 39° Northeast 427 491 37,000  Level FlightAware ADS-B (KSNC)
04:40PM 40.8049 -73.3652 39° Northeast 428 493 37,000 60 Level FlightAware ADS-B (KSNC)
04:40PM 40.8505 -73.3176 38° Northeast 427 491 37,100 60 Climbing FlightAware ADS-B (KSNC)
04:41PM 40.8979 -73.2681 38° Northeast 427 491 37,100 -120 Level FlightAware ADS-B (KSNC)
04:41PM 40.9582 -73.2051 38° Northeast 426 490 37,000 -120 Descending FlightAware ADS-B (KSNC)
04:42PM 41.0060 -73.1551 39° Northeast 427 491 37,000  Level FlightAware ADS-B (KSNC)
04:42PM 41.0559 -73.1027 39° Northeast 427 491 37,000  Level FlightAware ADS-B (KSNC)
04:43PM 41.1027 -73.0535 38° Northeast 426 490 37,000  Level FlightAware ADS-B (KSNC)
04:43PM 41.1492 -73.0045 39° Northeast 426 490 37,000  Level FlightAware ADS-B (KSNC)
04:44PM 41.2102 -72.9401 39° Northeast 425 489 37,000  Level FlightAware ADS-B (KSNC)
04:45PM 41.2577 -72.8899 39° Northeast 425 489 37,000  Level FlightAware ADS-B (KSNC)
04:45PM 41.3163 -72.8277 39° Northeast 424 488 37,000  Level FlightAware ADS-B (KSNC)
04:46PM 41.3586 -72.7827 39° Northeast 423 487 37,000  Level FlightAware ADS-B (KSNC)
04:46PM 41.4225 -72.7147 39° Northeast 422 486 37,000  Level FlightAware ADS-B (KSNC)
04:47PM 41.4706 -72.6633 39° Northeast 416 479 37,000  Level FlightAware ADS-B (KWWD)
04:47PM 41.4832 -72.6499 40° Northeast 417 480 37,000  Level FlightAware ADS-B (KWWD)
04:48PM 41.5363 -72.5932 39° Northeast 424 488 37,000  Level FlightAware ADS-B (KSNC)
04:48PM 41.5667 -72.5607 39° Northeast 425 489 37,000  Level FlightAware ADS-B (KSNC)
04:48PM 41.5804 -72.5460 40° Northeast 420 483 37,000  Level FlightAware ADS-B (KWWD)
04:49PM 41.6290 -72.4938 39° Northeast 426 490 37,000  Level FlightAware ADS-B (KSNC)
04:49PM 41.6767 -72.4425 39° Northeast 427 491 37,000  Level FlightAware ADS-B (KSNC)
04:50PM 41.7226 -72.3930 39° Northeast 428 493 37,000 60 Level FlightAware ADS-B (KSNC)
04:50PM 41.7861 -72.3243 39° Northeast 427 491 37,100 60 Climbing FlightAware ADS-B (KSNC)
04:51PM 41.8449 -72.2606 39° Northeast 425 489 37,100  Level FlightAware ADS-B (KSNC)
04:51PM 41.8573 -72.2471 40° Northeast 418 481 37,100 -180 Level FlightAware ADS-B (KASH)
04:52PM 41.9031 -72.1972 40° Northeast 417 480 37,000 -120 Descending FlightAware ADS-B (KASH)
04:52PM 41.9332 -72.1646 40° Northeast 417 480 37,000  Level FlightAware ADS-B (KASH)
04:52PM 41.9882 -72.1046 40° Northeast 415 478 37,000  Level FlightAware ADS-B (KASH)
04:53PM 42.0341 -72.0544 40° Northeast 416 479 37,000  Level FlightAware ADS-B (KASH)
04:53PM 42.0790 -72.0053 39° Northeast 421 484 37,000  Level FlightAware ADS-B (KASH)
04:54PM 42.1252 -71.9548 39° Northeast 420 483 37,000 60 Level FlightAware ADS-B (KASH)
04:55PM 42.1774 -71.8974 39° Northeast 419 482 37,100  Climbing FlightAware ADS-B (KSNC)
04:55PM 42.2374 -71.8313 39° Northeast 416 479 37,000 -120 Descending FlightAware ADS-B (KASH)
04:56PM 42.2829 -71.7809 39° Northeast 415 478 37,000  Level FlightAware ADS-B (KASH)
04:56PM 42.3279 -71.7313 39° Northeast 416 479 37,000  Level FlightAware ADS-B (KASH)
04:57PM 42.3733 -71.6811 40° Northeast 418 481 37,000  Level FlightAware ADS-B (KASH)
04:57PM 42.4173 -71.6322 40° Northeast 419 482 37,000 60 Level FlightAware ADS-B (KASH)
04:58PM 42.4631 -71.5810 40° Northeast 419 482 37,100 60 Climbing FlightAware ADS-B (KASH)
04:58PM 42.5251 -71.5117 40° Northeast 418 481 37,100  Level FlightAware ADS-B (KBOS)
04:59PM 42.5722 -71.4591 40° Northeast 417 480 37,100 -120 Level FlightAware ADS-B (KBOS)
05:00PM 42.6317 -71.3928 40° Northeast 416 479 37,000 -120 Descending FlightAware ADS-B (KBOS)
05:00PM 42.6774 -71.3416 40° Northeast 416 479 37,000  Level FlightAware ADS-B (KBOS)
05:01PM 42.7241 -71.2888 40° Northeast 415 478 37,000  Level FlightAware ADS-B (KASH)
05:01PM 42.7680 -71.2392 40° Northeast 416 479 37,000  Level FlightAware ADS-B (KBOS)
05:02PM 42.8123 -71.1891 40° Northeast 416 479 37,000 60 Level FlightAware ADS-B (KBOS)
05:02PM 42.8568 -71.1388 40° Northeast 415 478 37,100 60 Climbing FlightAware ADS-B (KBOS)
05:03PM 42.9020 -71.0875 40° Northeast 415 478 37,100 -120 Level FlightAware ADS-B (KBOS)
05:03PM 42.9499 -71.0331 41° Northeast 409 471 37,000 -120 Descending FlightAware ADS-B (KASH)
05:04PM 42.9978 -70.9786 40° Northeast 415 478 37,000  Level FlightAware ADS-B (KBOS)
05:04PM 43.0436 -70.9263 40° Northeast 415 478 37,000  Level FlightAware ADS-B (KBOS)
05:04PM 43.0567 -70.9115 41° Northeast 409 471 37,000 -720 Level FlightAware ADS-B (KASH)
05:05PM 43.1056 -70.8551 41° Northeast 403 464 36,500 -960 Descending FlightAware ADS-B (KASH)
05:06PM 43.1586 -70.7940 40° Northeast 405 466 35,900 -1,020 Descending FlightAware ADS-B (KBOS)
05:06PM 43.2025 -70.7438 40° Northeast 406 467 35,400 -960 Descending FlightAware ADS-B (KBOS)
05:06PM 43.2346 -70.7073 41° Northeast 402 463 35,100 -960 Descending FlightAware ADS-B (KASH)
05:07PM 43.2878 -70.6460 41° Northeast 401 461 34,500 -900 Descending FlightAware ADS-B (KASH)
05:08PM 43.3077 -70.6230 40° Northeast 409 471 34,100 -480 Descending FlightAware ADS-B (KBOS)
05:08PM 43.3803 -70.5392 40° Northeast 415 478 34,000 -120 Descending FlightAware ADS-B (KBOS)
05:09PM 43.4328 -70.4781 41° Northeast 407 468 34,000  Level FlightAware ADS-B (KASH)
05:09PM 43.4801 -70.4231 41° Northeast 410 472 34,000 -540 Level FlightAware ADS-B (KBOS)
05:10PM 43.5203 -70.3763 41° Northeast 409 471 33,500 -1,740 Descending FlightAware ADS-B (KASH)
05:10PM 43.5628 -70.3265 41° Northeast 406 467 32,400 -2,400 Descending FlightAware ADS-B (KASH)
05:11PM 43.6090 -70.2723 40° Northeast 399 459 30,900 -2,640 Descending FlightAware ADS-B (KBOS)
05:11PM 43.6564 -70.2171 40° Northeast 397 457 29,500 -2,700 Descending FlightAware ADS-B (KBOS)
05:12PM 43.6691 -70.2023 40° Northeast 397 457 29,100 -2,580 Descending FlightAware ADS-B (KBOS)
05:12PM 43.7339 -70.1261 41° Northeast 385 443 27,100 -2,400 Descending FlightAware ADS-B (KASH)
05:13PM 43.7799 -70.0715 41° Northeast 382 440 25,900 -2,220 Descending FlightAware ADS-B (KBOS)
05:14PM 43.8341 -70.0074 41° Northeast 368 423 24,400 -2,160 Descending FlightAware ADS-B (KASH)
05:14PM 43.8909 -69.9401 41° Northeast 363 418 22,900 -2,040 Descending FlightAware ADS-B (KASH)
05:15PM 43.9490 -69.8711 41° Northeast 365 420 21,400 -2,100 Descending FlightAware ADS-B (KASH)
05:16PM 43.9872 -69.8258 41° Northeast 364 419 20,300 -1,920 Descending FlightAware ADS-B (KASH)
05:16PM 44.0350 -69.7692 41° Northeast 367 422 19,100 -1,680 Descending Boston Center
05:22PM 44.4179 -69.2700 53° Northeast 282 325 10,000 -1,620 Descending FlightAware ADS-B (KBGR)
05:22PM 44.4400 -69.2296 53° Northeast 280 322 9,300 -1,380 Descending FlightAware ADS-B (KBGR)
05:23PM 44.4465 -69.2176 53° Northeast 276 318 9,000 -1,320 Descending FlightAware ADS-B (KBGR)
05:23PM 44.4696 -69.1748 53° Northeast 272 313 8,500 -1,560 Descending FlightAware ADS-B (KBGR)
05:24PM 44.5089 -69.1021 53° Northeast 266 306 7,100 -1,500 Descending FlightAware ADS-B (KBGR)
05:24PM 44.5193 -69.0829 53° Northeast 263 303 6,500 -1,380 Descending FlightAware ADS-B (KBGR)
05:25PM 44.5508 -69.0244 53° Northeast 263 303 5,700 -1,560 Descending FlightAware ADS-B (KBGR)
05:25PM 44.5777 -68.9748 53° Northeast 261 300 4,900 -1,320 Descending FlightAware ADS-B (KBGR)
05:26PM 44.5990 -68.9454 42° Northeast 253 291 4,500 -1,020 Descending FlightAware ADS-B (KBGR)
05:26PM 44.6155 -68.9248 42° Northeast 253 291 4,100 -1,080 Descending FlightAware ADS-B (KBGR)
05:27PM 44.6184 -68.9212 42° Northeast 244 281 3,700 -1,080 Descending FlightAware ADS-B (KBGR)
05:27PM 44.6501 -68.8825 38° Northeast 234 269 3,400 -1,320 Descending FlightAware ADS-B (KBGR)
05:27PM 44.6716 -68.8588 38° Northeast 234 269 2,800 -1,500 Descending FlightAware ADS-B (KBGR)
05:28PM 44.6884 -68.8404 38° Northeast 222 255 2,400 -660 Descending FlightAware ADS-B (KBGR)
05:28PM 44.7047 -68.8219 42° Northeast 208 239 2,400 -720 Level FlightAware ADS-B (KBGR)
05:29PM 44.7409 -68.7762 36° Northeast 175 201 1,500 -960 Descending FlightAware ADS-B (KBGR)
05:29PM 44.7470 -68.7715 27° Northeast 159 183 1,400 -780 Descending FlightAware ADS-B (KBGR)
05:29PM 44.7614 -68.7697 351° North 129 148 1,100 -780 Descending FlightAware ADS-B (KBGR)
05:30PM 44.7646 -68.7713 332° Northwest 127 146 1,000 -480 Descending FlightAware ADS-B (KBGR)
05:30PM 44.7674 -68.7732 318° Northwest 131 151 900 -600 Descending FlightAware ADS-B (KBGR)
05:30PM 44.7833 -68.7931 313° West 139 160 600 -840 Descending FlightAware ADS-B (KBGR)
05:31PM 44.7927 -68.8068 314° West 137 158 300 -900 Descending FlightAware ADS-B (KBGR)